Terminal Aerodrome Forecast
Issued by NWS

Home | Current Version | Previous Version | Text Only | Print | Product List | Glossary On
Versions: 1 2 3 4 5 6 7 8 9 10 11 12 13 14 15 16 17 18 19 20 21 22 23 24
812
FTUS43 KICT 281306 AAA
TAFCNU
TAF AMD
KCNU 281306Z 2813/2912 17012KT P6SM SCT035 OVC300
     FM281500 18017G25KT P6SM OVC300
     FM281700 18020G30KT P6SM SCT050
     FM290200 17013KT P6SM SKC
      AMD NOT SKED=

USA.gov is the U.S. government's official web portal to all federal, state and local government web resources and services.